FVCE weather

Celina Airport
Celina, Mashonaland Central Province, Zimbabwe

Public forecast

Using degrees Celsius for public forecast. Weather courtesy of forecast.io.

Closest aviation weather report (METAR) to Celina Airport

Closest report is Robert Gabriel Mugabe International Airport, 28.5 nm (52.8 km) SSE. Retrieved 2019/10/20 04:00 UTC (32 minutes ago):

FVRG 200400Z 06008KT CAVOK 17/10 Q1022 NOSIG

Closest aviation forecast (TAF) to Celina Airport

Forecast is more than 12 hours old.

Closest forecast is Robert Gabriel Mugabe International Airport, 28.5 nm (52.8 km) SSE. Retrieved 2019-10-19 00:00 UTC (1 day ago):

TAF FBSK 182100Z 1900/2006 23010KT CAVOK TAF FVRG 182200Z 1900/2006 VRB03KT CAVOK